createdAt,value
2023-02-19T00:01:17.063Z,10.83
2023-02-19T00:03:55.648Z,10.83
2023-02-19T00:06:25.070Z,10.72
2023-02-19T00:08:51.975Z,10.68
2023-02-19T00:11:21.417Z,10.63
2023-02-19T00:13:50.916Z,10.58
2023-02-19T00:16:20.910Z,10.63
2023-02-19T00:18:47.925Z,10.67
2023-02-19T00:21:15.523Z,10.60
2023-02-19T00:23:42.317Z,10.55
2023-02-19T00:26:18.530Z,10.55
2023-02-19T00:28:49.560Z,10.66
2023-02-19T00:31:21.370Z,10.53
2023-02-19T00:33:50.682Z,10.57
2023-02-19T00:36:17.756Z,10.53
2023-02-19T00:38:45.268Z,10.48
2023-02-19T00:41:19.301Z,10.57
2023-02-19T00:43:49.201Z,10.58
2023-02-19T00:46:18.688Z,10.53
2023-02-19T00:48:46.563Z,10.55
2023-02-19T00:51:13.755Z,10.44
2023-02-19T00:53:41.095Z,10.26
2023-02-19T00:56:09.115Z,10.40
2023-02-19T00:58:36.180Z,10.57
2023-02-19T01:01:03.379Z,10.73
2023-02-19T01:03:30.254Z,10.87
2023-02-19T01:05:57.142Z,10.85
2023-02-19T01:08:24.298Z,10.83
2023-02-19T01:10:51.484Z,10.74
2023-02-19T01:13:18.824Z,10.82
2023-02-19T01:15:45.984Z,10.76
2023-02-19T01:18:12.861Z,10.89
2023-02-19T01:20:41.664Z,10.80
2023-02-19T01:23:10.474Z,10.75
2023-02-19T01:25:42.185Z,10.57
2023-02-19T01:28:09.158Z,10.69
2023-02-19T01:30:37.260Z,10.71
2023-02-19T01:33:09.804Z,10.67
2023-02-19T01:35:40.417Z,10.51
2023-02-19T01:38:08.470Z,10.57
2023-02-19T01:40:35.757Z,10.57
2023-02-19T01:43:03.805Z,10.74
2023-02-19T01:45:35.683Z,10.72
2023-02-19T01:48:05.772Z,10.83
2023-02-19T01:50:37.175Z,10.87
2023-02-19T01:53:07.853Z,10.83
2023-02-19T01:55:35.695Z,10.89
2023-02-19T01:58:04.306Z,10.92
2023-02-19T02:00:33.360Z,10.92
2023-02-19T02:03:01.559Z,10.92
2023-02-19T02:05:48.937Z,10.83
2023-02-19T02:08:36.241Z,10.83
2023-02-19T02:11:04.123Z,10.78
2023-02-19T02:13:34.081Z,10.79
2023-02-19T02:16:17.190Z,10.75
2023-02-19T02:18:46.944Z,10.75
2023-02-19T02:21:33.274Z,10.82
2023-02-19T02:24:09.399Z,10.85
2023-02-19T02:26:52.548Z,10.77
2023-02-19T02:29:25.684Z,10.79
2023-02-19T02:32:21.528Z,10.81
2023-02-19T02:34:54.872Z,10.94
2023-02-19T02:37:25.522Z,10.90
2023-02-19T02:39:53.058Z,10.92
2023-02-19T02:42:29.654Z,10.90
2023-02-19T02:45:36.360Z,10.95
2023-02-19T02:48:33.265Z,10.92
2023-02-19T02:51:00.118Z,10.84
2023-02-19T02:54:16.143Z,10.82
2023-02-19T02:56:48.505Z,10.71
2023-02-19T02:59:18.237Z,10.73
2023-02-19T03:02:03.747Z,10.73
2023-02-19T03:04:30.611Z,10.68
2023-02-19T03:07:03.263Z,10.61
2023-02-19T03:09:40.764Z,10.50
2023-02-19T03:12:34.055Z,10.34
2023-02-19T03:27:48.266Z,9.67
2023-02-19T03:30:28.492Z,9.81
2023-02-19T03:33:03.062Z,9.88
2023-02-19T03:35:36.920Z,9.92
2023-02-19T03:38:09.129Z,9.99
2023-02-19T03:40:50.220Z,9.94
2023-02-19T03:43:41.776Z,10.00
2023-02-19T03:46:15.989Z,10.06
2023-02-19T03:48:57.339Z,9.98
2023-02-19T03:51:42.725Z,9.98
2023-02-19T03:54:22.745Z,9.98
2023-02-19T03:56:59.126Z,10.03
2023-02-19T03:59:41.977Z,10.08
2023-02-19T04:02:25.305Z,10.00
2023-02-19T04:05:01.139Z,9.94
2023-02-19T04:07:33.066Z,9.91
2023-02-19T04:10:00.615Z,9.82
2023-02-19T04:12:28.468Z,9.82
2023-02-19T04:15:07.246Z,9.86
2023-02-19T04:17:39.381Z,9.77
2023-02-19T04:20:09.966Z,9.69
2023-02-19T04:22:39.310Z,9.58
2023-02-19T04:25:06.416Z,9.66
2023-02-19T04:27:37.433Z,9.57
2023-02-19T04:30:06.708Z,9.52
2023-02-19T04:32:33.553Z,9.57
2023-02-19T04:35:00.393Z,9.59
2023-02-19T04:37:27.198Z,9.70
2023-02-19T04:39:53.996Z,9.79
2023-02-19T04:42:20.934Z,9.78
2023-02-19T04:44:47.804Z,9.84
2023-02-19T04:47:17.765Z,10.02
2023-02-19T04:49:45.235Z,10.15
2023-02-19T04:52:12.491Z,10.17
2023-02-19T04:54:39.441Z,10.23
2023-02-19T04:57:06.277Z,10.30
2023-02-19T04:59:33.108Z,10.46
2023-02-19T05:02:00.005Z,10.44
2023-02-19T05:04:26.910Z,10.44
2023-02-19T05:06:53.795Z,10.48
2023-02-19T05:09:20.672Z,10.47
2023-02-19T05:11:47.593Z,10.44
2023-02-19T05:14:14.468Z,10.46
2023-02-19T05:16:41.366Z,10.65
2023-02-19T05:19:11.712Z,10.87
2023-02-19T05:21:42.262Z,11.03
2023-02-19T05:24:09.228Z,11.23
2023-02-19T05:26:36.408Z,11.21
2023-02-19T05:29:03.394Z,11.16
2023-02-19T05:31:30.358Z,11.20
2023-02-19T05:33:57.588Z,11.35
2023-02-19T05:36:24.493Z,11.61
2023-02-19T05:38:55.975Z,11.66
2023-02-19T05:41:28.058Z,11.90
2023-02-19T05:43:55.932Z,12.05
2023-02-19T05:46:26.377Z,12.42
2023-02-19T05:48:53.721Z,12.53
2023-02-19T05:51:22.869Z,12.77
2023-02-19T05:53:50.681Z,12.92
2023-02-19T05:56:34.503Z,13.35
2023-02-19T05:59:04.162Z,13.52
2023-02-19T06:01:31.198Z,13.84
2023-02-19T06:03:58.629Z,14.82
2023-02-19T06:06:27.244Z,15.06
2023-02-19T06:08:55.072Z,15.62
2023-02-19T06:11:21.985Z,15.53
2023-02-19T06:13:50.526Z,15.92
2023-02-19T06:16:18.421Z,15.91
2023-02-19T06:18:46.172Z,16.05
2023-02-19T06:21:14.116Z,15.80
2023-02-19T06:23:41.248Z,15.66
2023-02-19T06:26:20.835Z,15.88
2023-02-19T06:28:49.399Z,16.21
2023-02-19T06:31:17.515Z,16.23
2023-02-19T06:33:44.768Z,16.49
2023-02-19T06:36:15.401Z,17.02
2023-02-19T06:38:42.574Z,17.54
2023-02-19T06:41:11.237Z,17.12
2023-02-19T06:43:38.203Z,16.44
2023-02-19T06:46:06.635Z,16.48
2023-02-19T06:48:34.716Z,17.68
2023-02-19T06:51:02.014Z,17.92
2023-02-19T06:53:29.545Z,18.40
2023-02-19T06:56:02.522Z,17.98
2023-02-19T06:58:30.200Z,17.28
2023-02-19T07:00:57.191Z,16.96
2023-02-19T07:03:26.351Z,16.79
2023-02-19T07:05:53.477Z,16.50
2023-02-19T07:08:20.617Z,16.57
2023-02-19T07:10:56.597Z,16.55
2023-02-19T07:13:27.796Z,16.51
2023-02-19T07:16:03.412Z,17.33
2023-02-19T07:18:31.141Z,17.54
2023-02-19T07:21:08.673Z,17.74
2023-02-19T07:23:36.470Z,18.20
2023-02-19T07:26:04.086Z,18.60
2023-02-19T07:28:31.021Z,18.43
2023-02-19T07:31:02.814Z,18.62
2023-02-19T07:33:30.196Z,18.66
2023-02-19T07:35:57.465Z,18.51
2023-02-19T07:38:25.521Z,18.69
2023-02-19T07:40:53.314Z,18.61
2023-02-19T07:43:20.565Z,19.14
2023-02-19T07:45:47.746Z,20.15
2023-02-19T07:48:14.682Z,20.87
2023-02-19T07:50:42.029Z,20.22
2023-02-19T07:53:09.065Z,19.73
2023-02-19T07:55:36.061Z,19.38
2023-02-19T07:58:05.236Z,19.67
2023-02-19T08:00:33.130Z,19.42
2023-02-19T08:03:00.046Z,19.99
2023-02-19T08:05:33.422Z,20.75
2023-02-19T08:08:01.188Z,20.43
2023-02-19T08:10:46.656Z,20.76
2023-02-19T08:13:19.377Z,21.09
2023-02-19T08:15:46.909Z,21.53
2023-02-19T08:18:15.292Z,21.84
2023-02-19T08:20:43.454Z,21.43
2023-02-19T08:23:11.627Z,21.78
2023-02-19T08:25:39.667Z,22.20
2023-02-19T08:28:08.788Z,23.23
2023-02-19T08:30:38.396Z,23.08
2023-02-19T08:33:07.234Z,21.84
2023-02-19T08:35:37.310Z,22.73
2023-02-19T08:38:06.121Z,22.08
2023-02-19T08:40:33.817Z,22.87
2023-02-19T08:43:15.302Z,23.75
2023-02-19T08:45:44.486Z,23.49
2023-02-19T08:48:12.267Z,23.58
2023-02-19T08:50:39.869Z,25.65
2023-02-19T08:53:07.375Z,25.35
2023-02-19T08:55:34.706Z,25.00
2023-02-19T08:58:01.876Z,23.86
2023-02-19T09:00:28.875Z,23.78
2023-02-19T09:02:59.017Z,23.66
2023-02-19T09:05:25.937Z,24.03
2023-02-19T09:07:53.087Z,22.77
2023-02-19T09:10:20.143Z,23.30
2023-02-19T09:12:47.295Z,23.74
2023-02-19T09:15:14.324Z,24.29
2023-02-19T09:17:41.229Z,25.71
2023-02-19T09:20:09.378Z,25.33
2023-02-19T09:22:36.538Z,24.96
2023-02-19T09:25:03.791Z,25.66
2023-02-19T09:27:32.462Z,25.17
2023-02-19T09:29:59.466Z,23.61
2023-02-19T09:32:26.554Z,24.25
2023-02-19T09:34:53.494Z,24.18
2023-02-19T09:37:20.428Z,25.39
2023-02-19T09:39:47.396Z,25.58
2023-02-19T09:42:22.334Z,26.22
2023-02-19T09:44:52.861Z,24.46
2023-02-19T09:47:21.334Z,24.49
2023-02-19T09:49:52.028Z,25.35
2023-02-19T09:52:28.106Z,25.34
2023-02-19T09:54:59.427Z,26.47
2023-02-19T09:57:29.964Z,27.06
2023-02-19T10:00:04.889Z,26.79
2023-02-19T10:02:31.982Z,27.23
2023-02-19T10:04:59.302Z,27.04
2023-02-19T10:07:35.296Z,27.05
2023-02-19T10:10:14.555Z,27.38
2023-02-19T10:12:47.399Z,28.15
2023-02-19T10:15:25.885Z,27.43
2023-02-19T10:17:52.959Z,27.83
2023-02-19T10:20:27.937Z,25.44
2023-02-19T10:23:02.994Z,23.34
2023-02-19T10:25:31.573Z,23.44
2023-02-19T10:28:02.624Z,23.77
2023-02-19T10:30:33.474Z,23.77
2023-02-19T10:33:00.650Z,23.47
2023-02-19T10:35:28.692Z,22.53
2023-02-19T10:37:56.893Z,22.81
2023-02-19T10:40:27.494Z,21.88
2023-02-19T10:42:59.006Z,21.06
2023-02-19T10:45:35.007Z,20.41
2023-02-19T10:48:03.626Z,20.48
2023-02-19T10:50:33.261Z,20.36
2023-02-19T10:53:02.124Z,21.77
2023-02-19T10:55:37.810Z,21.81
2023-02-19T10:58:27.801Z,22.71
2023-02-19T11:01:19.793Z,23.39
2023-02-19T11:03:51.710Z,23.45
2023-02-19T11:06:26.857Z,24.18
2023-02-19T11:09:00.213Z,25.49
2023-02-19T11:11:32.045Z,26.38
2023-02-19T11:14:03.773Z,25.37
2023-02-19T11:16:43.623Z,26.43
2023-02-19T11:19:31.804Z,24.83
2023-02-19T11:22:00.891Z,25.43
2023-02-19T11:24:39.307Z,26.40
2023-02-19T11:27:17.094Z,25.27
2023-02-19T11:29:44.020Z,25.87
2023-02-19T11:32:25.370Z,25.53
2023-02-19T11:34:53.323Z,24.93
2023-02-19T11:37:21.539Z,23.71
2023-02-19T11:39:50.930Z,22.85
2023-02-19T11:42:45.511Z,22.01
2023-02-19T11:45:34.790Z,21.59
2023-02-19T11:48:43.297Z,23.42
2023-02-19T11:51:33.175Z,25.37
2023-02-19T11:54:09.170Z,25.07
2023-02-19T11:56:39.224Z,25.48
2023-02-19T11:59:20.191Z,25.12
2023-02-19T12:02:15.019Z,25.43
2023-02-19T12:04:47.921Z,25.59
2023-02-19T12:07:50.453Z,23.49
2023-02-19T12:10:28.679Z,22.85
2023-02-19T12:13:08.571Z,23.49
2023-02-19T12:15:40.064Z,21.85
2023-02-19T12:18:19.864Z,22.32
2023-02-19T12:21:18.810Z,21.16
2023-02-19T12:24:04.411Z,21.23
2023-02-19T12:26:37.580Z,20.46
2023-02-19T12:29:22.815Z,20.06
2023-02-19T12:32:21.774Z,19.10
2023-02-19T12:35:16.732Z,18.78
2023-02-19T12:38:14.728Z,18.58
2023-02-19T12:41:02.690Z,18.26
2023-02-19T12:43:31.834Z,18.31
2023-02-19T12:46:07.225Z,18.45
2023-02-19T12:48:40.357Z,18.47
2023-02-19T12:51:16.424Z,18.47
2023-02-19T12:54:01.836Z,18.39
2023-02-19T12:56:42.635Z,18.23
2023-02-19T12:59:35.585Z,18.08
2023-02-19T13:02:31.071Z,18.12
2023-02-19T13:05:24.249Z,18.40
2023-02-19T13:07:54.368Z,18.20
2023-02-19T13:10:21.313Z,18.20
2023-02-19T13:12:51.641Z,18.30
2023-02-19T13:15:30.259Z,18.44
2023-02-19T13:18:01.634Z,18.26
2023-02-19T13:20:32.863Z,18.45
2023-02-19T13:23:46.098Z,18.24
2023-02-19T13:26:13.296Z,18.27
2023-02-19T13:29:00.312Z,18.36
2023-02-19T13:32:00.894Z,18.40
2023-02-19T13:34:47.926Z,18.32
2023-02-19T13:37:17.043Z,18.29
2023-02-19T13:39:52.446Z,18.41
2023-02-19T13:42:34.898Z,18.42
2023-02-19T13:45:06.638Z,18.61
2023-02-19T13:47:56.231Z,18.79
2023-02-19T13:50:32.003Z,18.75
2023-02-19T13:53:00.573Z,18.60
2023-02-19T13:55:42.811Z,18.50
2023-02-19T13:58:34.849Z,18.34
2023-02-19T14:01:05.056Z,18.32
2023-02-19T14:03:36.629Z,18.23
2023-02-19T14:06:06.815Z,18.17
2023-02-19T14:08:49.899Z,18.06
2023-02-19T14:11:19.532Z,18.10
2023-02-19T14:13:52.141Z,18.09
2023-02-19T14:16:35.444Z,18.10
2023-02-19T14:19:02.560Z,18.01
2023-02-19T14:21:38.396Z,17.99
2023-02-19T14:24:11.332Z,17.89
2023-02-19T14:26:40.070Z,17.82
2023-02-19T14:29:09.167Z,17.76
2023-02-19T14:31:40.438Z,17.60
2023-02-19T14:34:19.664Z,17.52
2023-02-19T14:37:01.142Z,17.35
2023-02-19T14:39:40.675Z,17.28
2023-02-19T14:42:23.034Z,17.29
2023-02-19T14:44:58.156Z,17.16
2023-02-19T14:47:27.519Z,17.30
2023-02-19T14:50:00.212Z,17.33
2023-02-19T14:52:34.619Z,17.29
2023-02-19T14:55:36.283Z,17.18
2023-02-19T14:58:26.364Z,17.11
2023-02-19T15:00:53.362Z,17.12
2023-02-19T15:03:35.408Z,17.02
2023-02-19T15:06:19.579Z,16.99
2023-02-19T15:08:49.947Z,16.89
2023-02-19T15:11:20.833Z,16.86
2023-02-19T15:29:52.283Z,16.09
2023-02-19T15:32:26.749Z,16.21
2023-02-19T15:35:03.128Z,16.26
2023-02-19T15:37:33.197Z,16.28
2023-02-19T15:40:05.689Z,16.29
2023-02-19T15:42:35.128Z,16.26
2023-02-19T15:45:21.170Z,16.23
2023-02-19T15:48:04.548Z,16.14
2023-02-19T15:50:36.039Z,16.08
2023-02-19T15:53:07.161Z,16.04
2023-02-19T15:55:34.187Z,15.99
2023-02-19T15:58:04.076Z,15.93
2023-02-19T16:00:57.533Z,15.93
2023-02-19T16:03:27.081Z,15.85
2023-02-19T16:06:15.201Z,15.72
2023-02-19T16:08:44.889Z,15.60
2023-02-19T16:11:23.957Z,15.66
2023-02-19T16:13:52.047Z,15.59
2023-02-19T16:16:37.456Z,15.54
2023-02-19T16:19:04.745Z,15.46
2023-02-19T16:21:31.651Z,15.46
2023-02-19T16:24:16.974Z,15.39
2023-02-19T16:26:45.769Z,15.33
2023-02-19T16:29:33.142Z,15.29
2023-02-19T16:32:03.470Z,15.32
2023-02-19T16:34:34.483Z,15.29
2023-02-19T16:37:03.708Z,15.23
2023-02-19T16:39:30.939Z,15.17
2023-02-19T16:42:02.218Z,15.10
2023-02-19T16:44:30.983Z,15.06
2023-02-19T16:47:02.650Z,15.00
2023-02-19T16:49:29.718Z,14.96
2023-02-19T16:51:59.758Z,14.92
2023-02-19T16:54:26.765Z,14.89
2023-02-19T16:56:53.944Z,14.86
2023-02-19T16:59:21.028Z,14.78
2023-02-19T17:01:48.041Z,14.78
2023-02-19T17:04:16.442Z,14.74
2023-02-19T17:06:44.577Z,14.69
2023-02-19T17:09:11.625Z,14.70
2023-02-19T17:11:38.568Z,14.69
2023-02-19T17:14:05.602Z,14.64
2023-02-19T17:16:40.487Z,14.66
2023-02-19T17:19:17.014Z,14.72
2023-02-19T17:21:45.396Z,14.71
2023-02-19T17:24:12.745Z,14.70
2023-02-19T17:26:40.198Z,14.68
2023-02-19T17:29:08.986Z,14.61
2023-02-19T17:31:36.499Z,14.58
2023-02-19T17:34:03.694Z,14.58
2023-02-19T17:36:32.033Z,14.63
2023-02-19T17:39:00.145Z,14.64
2023-02-19T17:41:27.617Z,14.65
2023-02-19T17:43:54.640Z,14.64
2023-02-19T17:46:24.819Z,14.58
2023-02-19T17:48:52.071Z,14.56
2023-02-19T17:51:19.080Z,14.61
2023-02-19T17:53:46.745Z,14.59
2023-02-19T17:56:22.502Z,14.47
2023-02-19T17:58:49.741Z,14.57
2023-02-19T18:01:16.937Z,14.48
2023-02-19T18:03:44.504Z,14.57
2023-02-19T18:06:11.536Z,14.56
2023-02-19T18:08:38.567Z,14.53
2023-02-19T18:11:07.845Z,14.52
2023-02-19T18:13:34.798Z,14.57
2023-02-19T18:16:01.851Z,14.57
2023-02-19T18:18:30.373Z,14.52
2023-02-19T18:20:57.629Z,14.53
2023-02-19T18:23:24.529Z,14.46
2023-02-19T18:25:51.556Z,14.43
2023-02-19T18:28:18.708Z,14.43
2023-02-19T18:30:45.818Z,14.43
2023-02-19T18:33:13.438Z,14.38
2023-02-19T18:35:40.663Z,14.38
2023-02-19T18:38:07.525Z,14.33
2023-02-19T18:40:34.627Z,14.26
2023-02-19T18:43:01.544Z,14.27
2023-02-19T18:45:29.783Z,14.29
2023-02-19T18:47:56.717Z,14.33
2023-02-19T18:50:23.667Z,14.21
2023-02-19T18:52:50.608Z,14.17
2023-02-19T18:55:17.530Z,14.15
2023-02-19T18:57:45.556Z,14.19
2023-02-19T19:00:20.634Z,14.16
2023-02-19T19:02:50.262Z,14.10
2023-02-19T19:05:22.645Z,14.07
2023-02-19T19:07:54.249Z,14.09
2023-02-19T19:10:21.941Z,14.04
2023-02-19T19:12:49.104Z,14.09
2023-02-19T19:15:18.286Z,14.03
2023-02-19T19:17:45.650Z,14.07
2023-02-19T19:20:13.367Z,14.06
2023-02-19T19:22:40.517Z,14.03
2023-02-19T19:25:08.792Z,14.06
2023-02-19T19:27:35.775Z,14.00
2023-02-19T19:30:04.848Z,13.99
2023-02-19T19:32:31.820Z,14.05
2023-02-19T19:34:58.744Z,13.99
2023-02-19T19:37:28.698Z,14.00
2023-02-19T19:39:56.546Z,14.03
2023-02-19T19:42:23.636Z,14.07
2023-02-19T19:44:50.698Z,14.07
2023-02-19T19:47:17.927Z,14.10
2023-02-19T19:49:47.423Z,14.15
2023-02-19T19:52:14.939Z,14.11
2023-02-19T19:54:44.992Z,14.15
2023-02-19T19:57:12.036Z,14.12
2023-02-19T19:59:39.685Z,14.07
2023-02-19T20:02:08.084Z,14.07
2023-02-19T20:04:35.168Z,14.05
2023-02-19T20:07:02.454Z,14.02
2023-02-19T20:09:29.655Z,13.94
2023-02-19T20:11:57.142Z,13.93
2023-02-19T20:14:25.931Z,13.92
2023-02-19T20:16:54.987Z,13.84
2023-02-19T20:19:22.356Z,13.78
2023-02-19T20:21:54.060Z,13.82
2023-02-19T20:24:24.584Z,13.75
2023-02-19T20:26:54.271Z,13.70
2023-02-19T20:29:21.455Z,13.74
2023-02-19T20:31:52.012Z,13.68
2023-02-19T20:34:19.484Z,13.68
2023-02-19T20:36:48.310Z,13.60
2023-02-19T20:39:17.073Z,13.60
2023-02-19T20:41:49.225Z,13.65
2023-02-19T20:44:16.993Z,13.59
2023-02-19T20:46:49.554Z,13.52
2023-02-19T20:49:18.790Z,13.43
2023-02-19T20:51:55.183Z,13.45
2023-02-19T20:54:25.061Z,13.44
2023-02-19T20:56:55.040Z,13.36
2023-02-19T20:59:24.760Z,13.38
2023-02-19T21:01:51.779Z,13.41
2023-02-19T21:04:19.211Z,13.28
2023-02-19T21:06:46.156Z,13.27
2023-02-19T21:09:13.191Z,13.24
2023-02-19T21:11:40.366Z,13.08
2023-02-19T21:14:07.489Z,13.10
2023-02-19T21:16:34.542Z,12.98
2023-02-19T21:19:01.999Z,13.03
2023-02-19T21:21:31.502Z,12.93
2023-02-19T21:24:00.081Z,12.91
2023-02-19T21:26:37.981Z,12.84
2023-02-19T21:29:06.154Z,12.82
2023-02-19T21:31:44.264Z,12.82
2023-02-19T21:34:14.169Z,12.80
2023-02-19T21:36:41.379Z,12.84
2023-02-19T21:39:10.271Z,12.90
2023-02-19T21:41:37.488Z,12.94
2023-02-19T21:44:04.899Z,13.06
2023-02-19T21:46:33.424Z,13.07
2023-02-19T21:49:00.901Z,13.12
2023-02-19T21:51:31.132Z,13.15
2023-02-19T21:54:01.100Z,13.22
2023-02-19T21:56:30.271Z,13.14
2023-02-19T21:58:57.445Z,13.15
2023-02-19T22:01:28.144Z,13.16
2023-02-19T22:03:55.186Z,13.16
2023-02-19T22:06:29.024Z,13.02
2023-02-19T22:08:56.696Z,12.96
2023-02-19T22:11:23.661Z,12.82
2023-02-19T22:13:51.594Z,12.72
2023-02-19T22:16:18.803Z,12.65
2023-02-19T22:18:49.358Z,12.62
2023-02-19T22:21:17.593Z,12.62
2023-02-19T22:23:48.964Z,12.42
2023-02-19T22:26:30.467Z,12.24
2023-02-19T22:28:59.629Z,12.09
2023-02-19T22:31:28.239Z,12.02
2023-02-19T22:33:56.456Z,11.97
2023-02-19T22:36:26.687Z,12.05
2023-02-19T22:38:54.144Z,12.13
2023-02-19T22:41:21.894Z,12.26
2023-02-19T22:43:49.746Z,12.27
2023-02-19T22:46:19.647Z,12.37
2023-02-19T22:48:46.874Z,12.42
2023-02-19T22:51:16.863Z,12.31
2023-02-19T22:53:52.214Z,12.16
2023-02-19T22:56:22.368Z,12.07
2023-02-19T22:58:50.225Z,12.22
2023-02-19T23:01:17.824Z,12.20
2023-02-19T23:03:53.059Z,12.27
2023-02-19T23:06:26.628Z,12.33
2023-02-19T23:08:55.550Z,12.35
2023-02-19T23:11:28.640Z,12.39
2023-02-19T23:13:56.027Z,12.38
2023-02-19T23:16:23.039Z,12.47
2023-02-19T23:18:50.421Z,12.46
2023-02-19T23:21:18.529Z,12.35
2023-02-19T23:23:46.586Z,12.44
2023-02-19T23:26:15.115Z,12.35
2023-02-19T23:28:43.544Z,12.36
2023-02-19T23:31:10.750Z,12.37
2023-02-19T23:33:37.840Z,12.34
2023-02-19T23:36:05.664Z,12.22
2023-02-19T23:38:32.730Z,12.26
2023-02-19T23:41:00.120Z,12.20
2023-02-19T23:43:27.568Z,12.20
2023-02-19T23:45:54.618Z,12.24
2023-02-19T23:48:21.553Z,12.17
2023-02-19T23:50:49.012Z,12.21
2023-02-19T23:53:16.060Z,12.26
2023-02-19T23:55:42.972Z,12.27
2023-02-19T23:58:09.969Z,12.32
